Share

Garryowen, MT (59031)

RAWS LITTLE BIGHORN MT US (MLBHM8) Elev 3196 ft | 45.57 °N, 107.44 °W | Change Station

Current weather conditions updated 25 minutes ago

Mostly Cloudy
Mostly Cloudy
48 °F
Feels Like 43 °F
N
13
Wind Variable Wind from NNW
Gusts 25.0 mph
Sunrise 6:18 AM
Sunset 7:59 PM
Moon Waning Gibbous

Tomorrow is forecast to be Cooler than today.

Pressure 29.82 in
Visibility 10.0 miles
Clouds Few 7000 ft
Mostly Cloudy 9500 ft
Windchill 43 °F
Dew Point 38 °F
Humidity 68%
Rainfall 0.00 in
Snow Depth Not available.
UV 0 out of 16
Pollen 10.30 out of 12
Air Quality Not available.
Flu Activity Sporadic
METAR KBIL 190153Z 31018KT 10SM FEW070 BKN095 09/M05 A2981 RMK AO2 PK WND 29031/0119 SLP096 SHRA DSNT NE-E S-SW T00941050

More Conditions Fewer Conditions

Pressure 29.82 in
Visibility 10.0 miles
Clouds Few 7000 ft
Mostly Cloudy 9500 ft
Windchill 43 °F
Dew Point 38 °F
Humidity 68%
Rainfall 0.00 in
Snow Depth Not available.
UV 0 out of 16
Pollen 10.30 out of 12
Air Quality Not available.
Flu Activity Sporadic
METAR KBIL 190153Z 31018KT 10SM FEW070 BKN095 09/M05 A2981 RMK AO2 PK WND 29031/0119 SLP096 SHRA DSNT NE-E S-SW T00941050

More Conditions Fewer Conditions

10-Day Weather Forecast

Almanac

Astronomy

Apr. 18, 2014 Rise Set
Actual Time 6:18 AM MDT 7:59 PM MDT
Civil Twilight 5:47 AM MDT 8:30 PM MDT
Nautical Twilight 5:09 AM MDT 9:08 PM MDT
Astronomical Twilight 4:28 AM MDT 9:50 PM MDT
Moon 11:54 PM MDT (4/18) 8:36 AM MDT (4/18)
Length of Visible Light 14h 43m
Length of Day
13h 40m
Tomorrow will be 3m 0s longer.
Waning Gibbous, 84% of the Moon is Illuminated
Today
Waning Gibbous
Apr 22
Last Quarter
Apr 29
New
May 6
First Quarter
May 14
Full

Today's Extremes

State Highs State Lows

Community

  • Sunset Silhouettes
    Sunset Silhouettes
  • FL sunset Perico Isle
    FL sunset Perico Isle
  • Cloudy spring view
    Cloudy spring view
  • Old barn
    Old barn
  • What's for Lunch?
    What's for Lunch?

WunderPhotos

Upload Photos

1,702,594 photos uploaded!

WunderBlogs® & News

Nearby

Snow Depth

Station Depth Elevation
Cole Creek 77 in 7850 ft
Burnt Mountain 28 in 5880 ft
White Mill 96 in 8700 ft
Fisher Creek 129 in 9100 ft
Northeast Entrance 38 in 7350 ft

Coastal Water Temperatures

Place Temperature
No Stations Reporting

Earthquake Activity

City Distance Mag. Time & Date
No recent earthquake activity has been reported nearby.
Minimum magnitude displayed is 2.5.

Nearby Weather Stations

Station Location Temp. Windchill Dew Point Humidity Wind Precip. Elev Updated Type
RAWS LITTLE BIGHORN MT, Crow Agency, MT 48 °F 43 °F 38 °F 68% NNW  at  13 mph 0.00 in / hr 3196 ft 7:59 PM MDT MADIS
RAWS WOLF MOUNTAIN MT, Garryowen, MT 53 °F - 35 °F 50% West  at  9 mph 0.00 in / hr 4886 ft 7:18 PM MDT MADIS

Show More Stations Show Fewer Stations

What do you think?

We're not finished. Please let us know what you like, what you don't like, and what you are still missing.